Time;durP1;ratioP1;P1;durP2;ratioP2;P2;SDS_P1;SDS_P2;PMS_P1;PMS_P2;Temp;Humidity;BMP_temperature;BMP_pressure;BME280_temperature;BME280_humidity;BME280_pressure;Samples;Min_cycle;Max_cycle;Signal;HPM_P1;HPM_P2
2022/11/14 00:00:06;;;;;;;11.75;8.38;;;;;;;-142.75;100.00;78109.94;5101563;28;20602;-66
2022/11/14 00:02:31;;;;;;;16.47;8.57;;;;;;;-142.75;100.00;78115.84;5101589;28;20039;-67
2022/11/14 00:04:56;;;;;;;12.65;8.50;;;;;;;-142.75;100.00;78115.84;5102546;28;20444;-65
2022/11/14 00:07:22;;;;;;;15.20;8.80;;;;;;;-142.75;100.00;78125.69;5100834;28;20030;-65
2022/11/14 00:09:47;;;;;;;15.18;8.45;;;;;;;-142.75;100.00;78111.91;5101148;28;20273;-64
2022/11/14 00:12:12;;;;;;;17.08;9.10;;;;;;;-142.75;100.00;78098.13;5101306;28;20027;-64
2022/11/14 00:14:38;;;;;;;17.20;8.93;;;;;;;-142.75;100.00;78086.31;5101329;28;20031;-64
2022/11/14 00:17:04;;;;;;;13.85;9.43;;;;;;;-142.75;100.00;78084.34;5100370;28;20106;-64
2022/11/14 00:19:30;;;;;;;12.17;7.77;;;;;;;-142.75;100.00;78100.09;5082797;28;20036;-64
2022/11/14 00:21:56;;;;;;;13.70;7.50;;;;;;;-142.75;100.00;78109.94;5082895;28;20569;-64
2022/11/14 00:24:21;;;;;;;12.77;7.40;;;;;;;-142.75;100.00;78107.97;5100676;28;20077;-65
2022/11/14 00:26:47;;;;;;;10.13;7.13;;;;;;;-142.75;100.00;78107.97;5100496;28;22702;-63
2022/11/14 00:29:14;;;;;;;12.20;7.15;;;;;;;-142.75;100.00;78109.94;5099629;28;20535;-61
2022/11/14 00:31:39;;;;;;;12.63;7.50;;;;;;;-142.75;100.00;78117.81;5082784;28;20070;-64
2022/11/14 00:34:05;;;;;;;14.73;8.15;;;;;;;-142.75;100.00;78113.88;5101983;28;20133;-65
2022/11/14 00:36:31;;;;;;;13.25;8.60;;;;;;;-142.75;100.00;78102.06;5100325;28;20050;-64
2022/11/14 00:38:56;;;;;;;15.27;8.82;;;;;;;-142.75;100.00;78088.28;5100289;28;20477;-63
2022/11/14 00:41:22;;;;;;;13.18;8.18;;;;;;;-142.75;100.00;78096.16;5082338;28;20038;-65
2022/11/14 00:43:47;;;;;;;19.90;7.68;;;;;;;-142.75;100.00;78102.06;5100651;28;20038;-65
2022/11/14 00:46:12;;;;;;;11.30;6.80;;;;;;;-142.75;100.00;78117.81;5082474;28;20057;-65
2022/11/14 00:48:38;;;;;;;11.85;7.75;;;;;;;-142.75;100.00;78115.84;5099520;28;20301;-65
2022/11/14 00:51:03;;;;;;;12.13;7.85;;;;;;;-142.75;100.00;78102.06;5082449;28;20134;-66
2022/11/14 00:53:29;;;;;;;12.45;8.65;;;;;;;-142.75;100.00;78092.22;5100441;28;20157;-64
2022/11/14 00:55:54;;;;;;;18.95;8.25;;;;;;;-142.75;100.00;78088.28;5082429;28;20887;-65
2022/11/14 00:58:19;;;;;;;16.10;8.68;;;;;;;-142.75;100.00;78090.25;5081556;28;20142;-65
2022/11/14 01:00:45;;;;;;;15.20;8.32;;;;;;;-142.75;100.00;78086.31;5100484;28;20027;-64
2022/11/14 01:03:10;;;;;;;10.60;7.18;;;;;;;-142.75;100.00;78102.06;5100959;28;20023;-66
2022/11/14 01:05:43;;;;;;;11.80;7.00;;;;;;;-142.75;100.00;78109.94;5100669;28;20028;-63
2022/11/14 01:08:09;;;;;;;11.83;7.60;;;;;;;-142.75;100.00;78129.63;5099189;28;20027;-63
2022/11/14 01:10:41;;;;;;;16.25;7.55;;;;;;;-142.75;100.00;78153.25;5115104;22;20048;-65
2022/11/14 01:13:07;;;;;;;11.60;7.23;;;;;;;-142.75;100.00;78165.06;5100159;28;20027;-65
2022/11/14 01:15:32;;;;;;;12.98;7.90;;;;;;;-142.75;100.00;78172.94;5082024;28;20035;-65
2022/11/14 01:17:57;;;;;;;13.05;8.02;;;;;;;-142.75;100.00;78176.88;5081358;28;20066;-65
2022/11/14 01:20:23;;;;;;;12.80;7.72;;;;;;;-142.75;100.00;78172.94;5081569;28;20039;-65
2022/11/14 01:22:48;;;;;;;13.68;7.20;;;;;;;-142.75;100.00;78161.13;5100055;28;20029;-65
2022/11/14 01:25:13;;;;;;;12.55;7.60;;;;;;;-142.75;100.00;78163.09;5099776;28;20027;-65
2022/11/14 01:27:39;;;;;;;13.18;7.68;;;;;;;-142.75;100.00;78163.09;5098878;28;20483;-65
2022/11/14 01:30:05;;;;;;;12.82;7.70;;;;;;;-142.75;100.00;78155.22;5099302;28;20024;-65
2022/11/14 01:32:30;;;;;;;14.35;8.02;;;;;;;-142.75;100.00;78170.97;5099708;28;20031;-65
2022/11/14 01:34:55;;;;;;;11.10;7.38;;;;;;;-142.75;100.00;78184.78;5100710;28;20020;-65
2022/11/14 01:37:21;;;;;;;13.80;8.02;;;;;;;-142.75;100.00;78169.00;5098654;28;20483;-65
2022/11/14 01:39:46;;;;;;;12.57;7.82;;;;;;;-142.75;100.00;78137.50;5099083;28;20147;-65
2022/11/14 01:42:12;;;;;;;12.55;8.15;;;;;;;-142.75;100.00;78147.34;5099421;28;20845;-65
2022/11/14 01:44:44;;;;;;;12.93;7.70;;;;;;;-142.75;100.00;78159.16;5099160;28;20393;-65
2022/11/14 01:47:12;;;;;;;15.87;8.73;;;;;;;-142.75;100.00;78143.41;5098531;28;20020;-65
2022/11/14 01:49:41;;;;;;;15.23;9.17;;;;;;;-142.75;100.00;78147.34;5099210;28;20135;-65
2022/11/14 01:52:14;;;;;;;13.03;8.17;;;;;;;-142.75;100.00;78155.22;5081037;28;20084;-65
2022/11/14 01:55:01;;;;;;;12.07;7.60;;;;;;;-142.75;100.00;78145.38;5099017;28;20038;-65
2022/11/14 01:57:31;;;;;;;11.87;7.60;;;;;;;-142.75;100.00;78133.56;5098619;28;20038;-66
2022/11/14 02:00:00;;;;;;;12.23;7.67;;;;;;;-142.75;100.00;78131.59;5099153;28;20296;-65
2022/11/14 02:02:25;;;;;;;13.53;8.30;;;;;;;-142.75;100.00;78131.59;5099486;28;20038;-65
2022/11/14 02:05:05;;;;;;;11.80;7.50;;;;;;;-142.75;100.00;78137.50;5100193;28;20027;-65
2022/11/14 02:07:33;;;;;;;10.33;7.30;;;;;;;-142.75;100.00;78147.34;5098376;28;20024;-65
2022/11/14 02:10:02;;;;;;;11.23;7.23;;;;;;;-142.75;100.00;78153.25;5099031;28;20023;-65
2022/11/14 02:12:28;;;;;;;12.83;8.10;;;;;;;-142.75;100.00;78135.53;5099286;28;20279;-65
2022/11/14 02:14:56;;;;;;;12.38;7.72;;;;;;;-142.75;100.00;78133.56;5099270;28;20531;-65
2022/11/14 02:17:23;;;;;;;12.63;8.00;;;;;;;-142.75;100.00;78145.38;5098277;28;20067;-65
2022/11/14 02:19:53;;;;;;;14.17;8.63;;;;;;;-142.75;100.00;78151.28;5099684;28;20135;-65
2022/11/14 02:22:18;;;;;;;11.47;7.43;;;;;;;-142.75;100.00;78157.19;5098938;28;20681;-65
2022/11/14 02:24:44;;;;;;;14.48;7.57;;;;;;;-142.75;100.00;78165.06;5098776;28;20032;-65
2022/11/14 02:27:11;;;;;;;11.60;7.40;;;;;;;-142.75;100.00;78165.06;5098018;28;20032;-65
2022/11/14 02:29:37;;;;;;;14.40;8.13;;;;;;;-142.75;100.00;78143.41;5098632;28;20028;-65
2022/11/14 02:32:03;;;;;;;12.43;7.53;;;;;;;-142.75;100.00;78141.44;5098793;28;20059;-65
2022/11/14 02:34:28;;;;;;;13.35;8.35;;;;;;;-142.75;100.00;78123.72;5099203;28;20110;-65
2022/11/14 02:36:54;;;;;;;13.18;7.72;;;;;;;-142.75;100.00;78113.88;5098375;28;20027;-65
2022/11/14 02:39:19;;;;;;;14.68;9.07;;;;;;;-142.75;100.00;78102.06;5080301;28;20363;-64
2022/11/14 02:41:44;;;;;;;14.25;8.45;;;;;;;-142.75;100.00;78109.94;5098368;28;20015;-65
2022/11/14 02:44:10;;;;;;;15.47;8.70;;;;;;;-142.75;100.00;78098.13;5098601;28;20020;-65
2022/11/14 02:46:36;;;;;;;13.18;8.57;;;;;;;-142.75;100.00;78092.22;5097946;28;20117;-65
2022/11/14 02:49:01;;;;;;;12.98;8.10;;;;;;;-142.75;100.00;78106.00;5098119;28;20464;-65
2022/11/14 02:51:27;;;;;;;20.42;8.85;;;;;;;-142.75;100.00;78121.75;5097706;28;20028;-65
2022/11/14 02:53:52;;;;;;;19.45;8.23;;;;;;;-142.75;100.00;78123.72;5098648;28;20511;-65
2022/11/14 02:56:17;;;;;;;15.10;8.40;;;;;;;-142.75;100.00;78119.78;5098575;28;20019;-67
2022/11/14 02:58:43;;;;;;;15.93;8.10;;;;;;;-142.75;100.00;78115.84;5097478;28;20028;-64
2022/11/14 03:01:08;;;;;;;13.27;8.00;;;;;;;-142.75;100.00;78117.81;5098341;28;20661;-65
2022/11/14 03:03:33;;;;;;;15.70;9.38;;;;;;;-142.75;100.00;78129.63;5098786;28;20067;-65
2022/11/14 03:06:00;;;;;;;16.35;9.20;;;;;;;-142.75;100.00;78121.75;5080631;28;20027;-65
2022/11/14 03:08:26;;;;;;;16.23;9.00;;;;;;;-142.75;100.00;78115.84;5097848;28;20388;-65
2022/11/14 03:10:51;;;;;;;16.02;8.93;;;;;;;-142.75;100.00;78111.91;5098062;28;20028;-65
2022/11/14 03:13:16;;;;;;;12.95;8.20;;;;;;;-142.75;100.00;78131.59;5080006;28;20031;-65
2022/11/14 03:15:41;;;;;;;12.57;7.93;;;;;;;-142.75;100.00;78139.47;5098189;28;20039;-65
2022/11/14 03:18:07;;;;;;;14.00;8.27;;;;;;;-142.75;100.00;78139.47;5097319;28;20496;-65
2022/11/14 03:20:33;;;;;;;13.43;8.50;;;;;;;-142.75;100.00;78147.34;5098274;28;20118;-65
2022/11/14 03:22:58;;;;;;;14.68;7.95;;;;;;;-142.75;100.00;78151.28;5098304;28;20031;-65
2022/11/14 03:25:23;;;;;;;16.80;8.13;;;;;;;-142.75;100.00;78159.16;5098172;28;21492;-64
2022/11/14 03:27:49;;;;;;;16.00;9.70;;;;;;;-142.75;100.00;78157.19;5097304;28;20571;-65
2022/11/14 03:30:14;;;;;;;17.40;9.17;;;;;;;-142.75;100.00;78145.38;5097982;28;20111;-65
2022/11/14 03:32:40;;;;;;;18.42;9.25;;;;;;;-142.75;100.00;78141.44;5080200;28;20023;-64
2022/11/14 03:35:06;;;;;;;15.68;9.30;;;;;;;-142.75;100.00;78159.16;5080782;28;20027;-64
2022/11/14 03:37:31;;;;;;;17.55;8.98;;;;;;;-142.75;100.00;78167.03;5097040;28;20439;-65
2022/11/14 03:39:56;;;;;;;15.37;7.83;;;;;;;-142.75;100.00;78186.75;5097822;28;20102;-65
2022/11/14 03:42:21;;;;;;;14.00;8.50;;;;;;;-142.75;100.00;78196.59;5098037;28;20277;-65
2022/11/14 03:44:47;;;;;;;15.82;8.45;;;;;;;-142.75;100.00;78216.28;5097974;28;20036;-65
2022/11/14 03:47:12;;;;;;;12.63;7.85;;;;;;;-142.75;100.00;78239.91;5097251;28;20027;-65
2022/11/14 03:49:37;;;;;;;12.97;8.77;;;;;;;-142.75;100.00;78247.78;5097708;28;20072;-65
2022/11/14 03:52:03;;;;;;;13.13;7.95;;;;;;;-142.75;100.00;78247.78;5097810;28;20288;-65
2022/11/14 03:54:28;;;;;;;14.90;8.40;;;;;;;-142.75;100.00;78267.47;5097954;28;20024;-65
2022/11/14 03:56:53;;;;;;;15.33;8.03;;;;;;;-142.75;100.00;78281.25;5097440;28;20818;-65
2022/11/14 03:59:18;;;;;;;15.57;8.93;;;;;;;-142.75;100.00;78267.47;5097899;28;20289;-65
2022/11/14 04:01:44;;;;;;;16.50;9.40;;;;;;;-142.75;100.00;78275.34;5097519;28;20277;-64
2022/11/14 04:04:10;;;;;;;16.33;9.05;;;;;;;-142.75;100.00;78281.25;5100078;28;20932;-65
2022/11/14 04:06:36;;;;;;;19.20;10.13;;;;;;;-142.75;100.00;78287.16;5100732;28;20416;-65
2022/11/14 04:09:01;;;;;;;22.20;10.10;;;;;;;-142.75;100.00;78293.06;5101490;28;20027;-67
2022/11/14 04:11:26;;;;;;;20.40;10.55;;;;;;;-142.75;100.00;78275.34;5100887;28;20031;-65
2022/11/14 04:13:52;;;;;;;17.75;9.70;;;;;;;-142.75;100.00;78281.25;5101504;28;20029;-65
2022/11/14 04:16:17;;;;;;;20.38;10.60;;;;;;;-142.75;100.00;78269.44;5101155;28;20469;-66
2022/11/14 04:18:43;;;;;;;21.90;11.43;;;;;;;-142.75;100.00;78257.63;5100375;28;20031;-65
2022/11/14 04:21:08;;;;;;;23.17;11.60;;;;;;;-142.75;100.00;78245.81;5101128;28;20031;-65
2022/11/14 04:23:33;;;;;;;19.98;11.00;;;;;;;-142.75;100.00;78251.72;5100845;28;20529;-65
2022/11/14 04:25:58;;;;;;;19.50;10.53;;;;;;;-142.75;100.00;78251.72;5101173;28;20438;-65
2022/11/14 04:28:24;;;;;;;23.23;10.65;;;;;;;-142.75;100.00;78249.75;5099879;28;20023;-65
2022/11/14 04:30:49;;;;;;;24.37;12.47;;;;;;;-142.75;100.00;78235.97;5100540;28;20031;-64
2022/11/14 04:33:14;;;;;;;26.07;11.70;;;;;;;-142.75;100.00;78232.03;5100069;28;20367;-65
2022/11/14 04:35:40;;;;;;;19.63;10.75;;;;;;;-142.75;100.00;78237.94;5101396;28;20759;-65
2022/11/14 04:38:05;;;;;;;23.65;11.23;;;;;;;-142.75;100.00;78224.16;5081864;28;20080;-65
2022/11/14 04:40:30;;;;;;;26.08;11.10;;;;;;;-142.75;100.00;78235.97;5101034;28;20037;-65
2022/11/14 04:42:56;;;;;;;20.77;10.80;;;;;;;-142.75;100.00;78237.94;5102267;28;20097;-65
2022/11/14 04:45:21;;;;;;;17.40;9.37;;;;;;;-142.75;100.00;78241.88;5102790;28;20399;-65
2022/11/14 04:47:46;;;;;;;15.73;8.70;;;;;;;-142.75;100.00;78257.63;5101776;28;20273;-64
2022/11/14 04:50:12;;;;;;;13.33;8.37;;;;;;;-142.75;100.00;78275.34;5102548;28;20114;-64
2022/11/14 04:52:37;;;;;;;15.93;8.77;;;;;;;-142.75;100.00;78273.38;5102245;28;20280;-64
2022/11/14 04:55:02;;;;;;;12.35;7.07;;;;;;;-142.75;100.00;78287.16;5102447;28;20027;-67
2022/11/14 04:57:28;;;;;;;16.55;9.10;;;;;;;-142.75;100.00;78293.06;5101864;28;20084;-67
2022/11/14 04:59:53;;;;;;;15.43;7.50;;;;;;;-142.75;100.00;78300.97;5084108;28;20024;-67
2022/11/14 05:02:18;;;;;;;20.55;10.35;;;;;;;-142.75;100.00;78302.94;5102266;28;20755;-67
2022/11/14 05:04:46;;;;;;;22.02;10.98;;;;;;;-142.75;100.00;78295.06;5102430;28;20369;-67
2022/11/14 05:07:12;;;;;;;22.17;10.77;;;;;;;-142.75;100.00;78295.06;5101170;28;20758;-67
2022/11/14 05:09:37;;;;;;;20.20;11.27;;;;;;;-142.75;100.00;78295.06;5083707;28;20023;-67
2022/11/14 05:12:03;;;;;;;24.63;11.80;;;;;;;-142.75;100.00;78279.28;5102305;28;20038;-64
2022/11/14 05:14:30;;;;;;;26.95;13.15;;;;;;;-142.75;100.00;78263.53;5098576;28;20084;-64
2022/11/14 05:16:55;;;;;;;26.10;13.07;;;;;;;-142.75;100.00;78259.59;5101373;28;20038;-65
2022/11/14 05:19:21;;;;;;;28.23;13.75;;;;;;;-142.75;100.00;78261.56;5101925;28;20027;-65
2022/11/14 05:21:46;;;;;;;26.07;14.40;;;;;;;-142.75;100.00;78247.78;5101791;28;20092;-64
2022/11/14 05:24:11;;;;;;;23.33;13.03;;;;;;;-142.75;100.00;78247.78;5101870;28;20273;-64
2022/11/14 05:26:37;;;;;;;23.07;12.80;;;;;;;-142.75;100.00;78247.78;5101078;28;20763;-65
2022/11/14 05:29:02;;;;;;;23.50;12.07;;;;;;;-142.75;100.00;78241.88;5101773;28;20020;-64
2022/11/14 05:31:28;;;;;;;24.42;13.40;;;;;;;-142.75;100.00;78251.72;5100137;28;20055;-65
2022/11/14 05:33:53;;;;;;;25.80;12.70;;;;;;;-142.75;100.00;78247.78;5101836;28;20107;-65
2022/11/14 05:36:19;;;;;;;25.10;11.63;;;;;;;-142.75;100.00;78251.72;5101653;28;20354;-65
2022/11/14 05:38:44;;;;;;;25.20;12.38;;;;;;;-142.75;100.00;78243.84;5100893;28;20303;-67
2022/11/14 05:41:16;;;;;;;20.83;11.95;;;;;;;-142.75;100.00;78235.97;5101454;28;20028;-64
2022/11/14 05:43:42;;;;;;;25.40;12.83;;;;;;;-142.75;100.00;78235.97;5101544;28;20032;-65
2022/11/14 05:46:10;;;;;;;28.38;13.65;;;;;;;-142.75;100.00;78235.97;5101435;28;20139;-64
2022/11/14 05:48:36;;;;;;;27.00;13.53;;;;;;;-142.75;100.00;78243.84;5100640;28;20047;-65
2022/11/14 05:51:03;;;;;;;28.08;13.43;;;;;;;-142.75;100.00;78235.97;5101163;28;20035;-64
2022/11/14 05:53:29;;;;;;;26.00;12.70;;;;;;;-142.75;100.00;78239.91;5101405;28;20060;-65
2022/11/14 05:56:00;;;;;;;25.03;12.03;;;;;;;-142.75;100.00;78249.75;5101491;28;20038;-64
2022/11/14 05:58:25;;;;;;;24.47;12.43;;;;;;;-142.75;100.00;78257.63;5101018;28;20031;-65
2022/11/14 06:00:50;;;;;;;26.08;13.13;;;;;;;-142.75;100.00;78232.03;5101034;28;20046;-66
2022/11/14 06:03:15;;;;;;;28.02;13.95;;;;;;;-142.75;100.00;78218.25;5101206;28;20076;-65
2022/11/14 06:05:41;;;;;;;31.63;13.00;;;;;;;-142.75;100.00;78200.53;5100841;28;20023;-64
2022/11/14 06:08:07;;;;;;;27.42;13.55;;;;;;;-142.75;100.00;78196.59;5081831;28;20285;-64
2022/11/14 06:10:34;;;;;;;24.17;13.00;;;;;;;-142.75;100.00;78200.53;5100524;28;20032;-65
2022/11/14 06:12:59;;;;;;;24.20;13.10;;;;;;;-142.75;100.00;78202.50;5101048;28;20671;-65
2022/11/14 06:15:25;;;;;;;29.95;13.77;;;;;;;-142.75;100.00;78200.53;5100709;28;20027;-65
2022/11/14 06:17:54;;;;;;;25.63;12.73;;;;;;;-142.75;100.00;78210.38;5100015;28;20330;-65
2022/11/14 06:20:19;;;;;;;25.70;13.73;;;;;;;-142.75;100.00;78214.31;5099044;28;20292;-66
2022/11/14 06:22:45;;;;;;;26.83;13.23;;;;;;;-142.75;100.00;78216.28;5100850;28;20098;-65
2022/11/14 06:25:10;;;;;;;30.98;15.82;;;;;;;-142.75;100.00;78216.28;5100762;28;20401;-65
2022/11/14 06:27:35;;;;;;;28.63;13.63;;;;;;;-142.75;100.00;78206.44;5099239;28;20035;-65
2022/11/14 06:30:01;;;;;;;41.30;23.42;;;;;;;-142.75;100.00;78202.50;5081868;28;20144;-65
2022/11/14 06:32:26;;;;;;;30.52;15.27;;;;;;;-142.75;100.00;78198.56;5100795;28;20106;-66
2022/11/14 06:34:52;;;;;;;29.50;14.38;;;;;;;-142.75;100.00;78188.72;5100623;28;20028;-65
2022/11/14 06:37:17;;;;;;;31.48;14.70;;;;;;;-142.75;100.00;78188.72;5099632;28;20031;-65
2022/11/14 06:39:42;;;;;;;32.63;14.80;;;;;;;-142.75;100.00;78188.72;5100582;28;20740;-65
2022/11/14 06:42:08;;;;;;;28.25;14.07;;;;;;;-142.75;100.00;78184.78;5100355;28;20024;-65
2022/11/14 06:44:33;;;;;;;32.78;16.65;;;;;;;-142.75;100.00;78188.72;5100624;28;20390;-67
2022/11/14 06:46:58;;;;;;;33.90;17.77;;;;;;;-142.75;100.00;78184.78;5099801;28;20036;-67
2022/11/14 06:49:24;;;;;;;28.77;14.60;;;;;;;-142.75;100.00;78184.78;5100220;28;20055;-67
2022/11/14 06:51:50;;;;;;;30.55;15.00;;;;;;;-142.75;100.00;78188.72;5100035;28;20130;-67
2022/11/14 06:54:15;;;;;;;30.02;14.65;;;;;;;-142.75;100.00;78188.72;5100475;28;20028;-67
2022/11/14 06:56:40;;;;;;;50.78;22.42;;;;;;;-142.75;100.00;78204.47;5099691;28;20031;-67
2022/11/14 06:59:06;;;;;;;79.33;27.20;;;;;;;-142.75;100.00;78212.34;5100056;28;20716;-67
2022/11/14 07:01:31;;;;;;;46.20;19.38;;;;;;;-142.75;100.00;78216.28;5099985;28;20050;-67
2022/11/14 07:04:01;;;;;;;34.15;16.83;;;;;;;-142.75;100.00;78220.22;5100322;28;20024;-67
2022/11/14 07:06:28;;;;;;;29.50;14.17;;;;;;;-142.75;100.00;78226.13;5100019;28;20031;-67
2022/11/14 07:08:54;;;;;;;27.20;14.43;;;;;;;-142.75;100.00;78220.22;5099911;28;20165;-67
2022/11/14 07:11:23;;;;;;;28.97;15.13;;;;;;;-142.75;100.00;78216.28;5115493;22;20529;-66
2022/11/14 07:13:57;;;;;;;27.13;14.50;;;;;;;-142.75;100.00;78206.44;5082189;28;20501;-66
2022/11/14 07:16:24;;;;;;;27.13;13.93;;;;;;;-142.75;100.00;78196.59;5099947;28;20564;-66
2022/11/14 07:18:50;;;;;;;35.40;14.93;;;;;;;-142.75;100.00;78178.84;5081041;28;20650;-66
2022/11/14 07:21:15;;;;;;;29.70;13.93;;;;;;;-142.75;100.00;78151.28;5098254;28;20062;-66
2022/11/14 07:23:43;;;;;;;29.42;13.85;;;;;;;-142.75;100.00;78137.50;5090950;28;20851;-66
2022/11/14 07:26:10;;;;;;;26.53;14.73;;;;;;;-142.75;100.00;78115.84;5091622;28;20123;-67
2022/11/14 07:28:41;;;;;;;25.40;13.67;;;;;;;-142.75;100.00;78096.16;5098052;28;20038;-65
2022/11/14 07:31:09;;;;;;;33.23;15.03;;;;;;;-142.75;100.00;78088.28;5099764;28;20474;-68
2022/11/14 07:33:34;;;;;;;28.93;14.13;;;;;;;-142.75;100.00;78078.44;5099825;28;20031;-68
2022/11/14 07:36:01;;;;;;;24.65;13.48;;;;;;;-142.75;100.00;78060.72;5082284;28;20140;-66
2022/11/14 07:38:26;;;;;;;23.67;12.57;;;;;;;-142.75;100.00;78035.09;5100368;28;20460;-68
2022/11/14 07:40:56;;;;;;;29.70;13.65;;;;;;;-142.75;100.00;78015.41;5098869;28;20033;-68
2022/11/14 07:43:22;;;;;;;26.10;13.20;;;;;;;-142.75;100.00;78011.47;5100818;28;20125;-68
2022/11/14 07:45:48;;;;;;;24.50;13.40;;;;;;;-142.75;100.00;77997.69;5018259;28;20028;-66
2022/11/14 07:48:13;;;;;;;26.33;13.95;;;;;;;-142.75;100.00;77979.97;5024058;28;20190;-65
2022/11/14 07:50:39;;;;;;;25.95;14.05;;;;;;;-142.75;100.00;77964.22;5036398;28;20285;-66
2022/11/14 07:53:05;;;;;;;24.98;12.77;;;;;;;-142.75;100.00;77942.56;5048260;28;20381;-66
2022/11/14 07:55:30;;;;;;;23.27;12.43;;;;;;;-142.75;100.00;77930.75;5031128;28;20032;-65
2022/11/14 07:57:58;;;;;;;24.75;13.27;;;;;;;-142.75;100.00;77905.13;5046142;28;20443;-66
2022/11/14 08:00:24;;;;;;;21.33;11.23;;;;;;;-142.75;100.00;77887.41;5037665;28;20785;-64
2022/11/14 08:02:49;;;;;;;24.02;12.55;;;;;;;-142.75;100.00;77873.63;5013573;28;20032;-65
2022/11/14 08:05:16;;;;;;;26.90;13.07;;;;;;;-142.75;100.00;77867.72;5066661;28;20051;-66
2022/11/14 08:07:41;;;;;;;;;;;;;;;-142.75;100.00;77846.06;5080031;28;20028;-66
2022/11/14 08:10:07;;;;;;;23.30;11.37;;;;;;;-142.75;100.00;77822.44;5099393;28;20385;-66
2022/11/14 08:12:33;;;;;;;21.73;11.50;;;;;;;-142.75;100.00;77794.88;5098257;28;20024;-68
2022/11/14 08:14:58;;;;;;;20.13;11.43;;;;;;;-142.75;100.00;77771.25;5101267;28;20023;-66
2022/11/14 08:17:23;;;;;;;22.27;11.13;;;;;;;-142.75;100.00;77759.44;5097732;28;20532;-67
2022/11/14 08:19:48;;;;;;;18.50;10.73;;;;;;;-142.75;100.00;77741.72;5081436;28;20030;-67
2022/11/14 08:22:14;;;;;;;18.83;10.45;;;;;;;-142.75;100.00;77731.88;5095581;28;20016;-67
2022/11/14 08:24:39;;;;;;;20.33;11.93;;;;;;;-142.75;100.00;77716.09;5083010;28;20102;-67
2022/11/14 08:27:04;;;;;;;16.63;10.30;;;;;;;-142.75;100.00;77735.81;5099254;28;20269;-68
2022/11/14 08:29:30;;;;;;;16.35;9.73;;;;;;;-142.75;100.00;77723.97;5097319;28;20285;-64
2022/11/14 08:31:55;;;;;;;20.25;10.63;;;;;;;-142.75;100.00;77698.38;5089205;28;20060;-65
2022/11/14 08:34:22;;;;;;;20.60;10.30;;;;;;;-142.75;100.00;77684.59;5090558;28;20031;-65
2022/11/14 08:36:48;;;;;;;21.03;9.90;;;;;;;-142.75;100.00;77617.66;5094075;28;20370;-68
2022/11/14 08:39:13;;;;;;;15.57;9.50;;;;;;;-142.75;100.00;77603.88;5097132;28;20114;-70
2022/11/14 08:41:38;;;;;;;18.75;9.05;;;;;;;-142.75;100.00;77574.34;5095776;28;20028;-65
2022/11/14 08:44:04;;;;;;;13.60;8.63;;;;;;;-142.75;100.00;77601.91;5100317;28;20051;-68
2022/11/14 08:46:29;;;;;;;13.63;8.52;;;;;;;-142.75;100.00;77584.19;5095469;28;21088;-68
2022/11/14 08:48:54;;;;;;;14.40;8.45;;;;;;;-142.75;100.00;77586.16;5079855;28;20047;-69
2022/11/14 08:51:20;;;;;;;15.85;8.48;;;;;;;-142.75;100.00;77554.66;5079223;28;20139;-68
2022/11/14 08:53:45;;;;;;;12.95;8.60;;;;;;;-142.75;100.00;77542.84;5101998;28;20051;-67
2022/11/14 08:56:10;;;;;;;14.88;8.63;;;;;;;-142.75;100.00;77529.06;5097838;28;20023;-68
2022/11/14 08:58:36;;;;;;;12.85;7.57;;;;;;;-142.75;100.00;77499.53;5099882;28;20028;-68
2022/11/14 09:01:05;;;;;;;14.85;7.95;;;;;;;-142.75;100.00;77444.38;5082095;28;20031;-65
2022/11/14 09:03:30;;;;;;;11.55;7.38;;;;;;;-142.75;100.00;77405.00;5097381;28;20035;-66
2022/11/14 09:05:56;;;;;;;18.25;7.93;;;;;;;-142.75;100.00;77347.91;5099469;28;20035;-67
2022/11/14 09:08:22;;;;;;;11.48;7.03;;;;;;;-142.75;100.00;77294.75;5096883;28;20018;-68
2022/11/14 09:10:47;;;;;;;14.23;7.55;;;;;;;-142.75;100.00;77263.25;5098840;28;20032;-68
2022/11/14 09:13:13;;;;;;;11.63;7.40;;;;;;;-142.75;100.00;77231.75;5083686;28;20076;-65
2022/11/14 09:15:38;;;;;;;12.27;7.22;;;;;;;-142.75;100.00;77227.81;5085125;28;20068;-68
2022/11/14 09:18:03;;;;;;;10.98;6.43;;;;;;;-142.75;100.00;77206.16;5101101;28;20084;-66
2022/11/14 09:20:29;;;;;;;14.18;6.95;;;;;;;-142.75;100.00;77182.53;5083807;28;20019;-68
2022/11/14 09:22:57;;;;;;;10.57;6.93;;;;;;;-142.75;100.00;77127.41;5096657;28;20028;-64
2022/11/14 09:25:25;;;;;;;11.98;7.07;;;;;;;-142.75;100.00;77115.59;5088255;28;20737;-67
2022/11/14 09:27:50;;;;;;;12.63;6.70;;;;;;;-142.75;100.00;77080.16;5095011;28;20024;-66
2022/11/14 09:30:16;;;;;;;11.63;7.22;;;;;;;-142.75;100.00;77064.41;5096696;28;20016;-68
2022/11/14 09:32:41;;;;;;;13.07;6.45;;;;;;;-142.75;100.00;77074.25;5076460;28;20078;-69
2022/11/14 09:35:06;;;;;;;10.43;6.65;;;;;;;-142.75;100.00;77060.47;5080274;28;20066;-69
2022/11/14 09:37:32;;;;;;;11.50;7.38;;;;;;;-142.75;100.00;77042.75;5097395;28;20020;-65
2022/11/14 09:39:57;;;;;;;12.40;6.40;;;;;;;-142.75;100.00;77023.06;5093481;28;20125;-64
2022/11/14 09:42:50;;;;;;;12.27;6.57;;;;;;;-142.75;100.00;77028.97;5097074;28;20362;-69
2022/11/14 09:45:16;;;;;;;14.20;7.68;;;;;;;-142.75;100.00;77028.97;5101429;28;20110;-70
2022/11/14 09:47:51;;;;;;;11.50;6.30;;;;;;;-142.75;100.00;76987.63;5081697;28;20388;-70
2022/11/14 09:50:34;;;;;;;12.80;6.97;;;;;;;-142.75;100.00;76983.69;5100698;28;20072;-69
2022/11/14 09:53:09;;;;;;;15.13;6.57;;;;;;;-142.75;100.00;76952.19;5100892;28;20273;-71
2022/11/14 09:55:34;;;;;;;12.68;6.68;;;;;;;-142.75;100.00;76962.03;5082373;28;20034;-70
2022/11/14 09:58:17;;;;;;;9.85;6.07;;;;;;;-142.75;100.00;76954.16;5100277;28;20031;-69
2022/11/14 10:00:54;;;;;;;12.75;6.75;;;;;;;-142.75;100.00;76969.91;5100305;28;20024;-69
2022/11/14 10:03:25;;;;;;;10.48;6.28;;;;;;;-142.75;100.00;77003.38;5100699;28;20027;-69
2022/11/14 10:06:29;;;;;;;10.70;6.35;;;;;;;-142.75;100.00;76991.56;5100666;28;20019;-69
2022/11/14 10:09:24;;;;;;;11.85;6.20;;;;;;;-142.75;100.00;76973.84;5098534;28;20595;-70
2022/11/14 10:11:59;;;;;;;12.18;6.95;;;;;;;-142.75;100.00;76956.13;5100130;28;20127;-70
2022/11/14 10:14:43;;;;;;;9.73;6.18;;;;;;;-142.75;100.00;76930.53;5101068;28;20019;-69
2022/11/14 10:17:29;;;;;;;11.10;6.50;;;;;;;-142.75;100.00;76928.56;5099952;28;20106;-69
2022/11/14 10:20:01;;;;;;;11.80;5.97;;;;;;;-142.75;100.00;76916.75;5082574;28;20031;-70
2022/11/14 10:22:47;;;;;;;11.25;6.82;;;;;;;-142.75;100.00;76952.19;5100340;28;20845;-68
2022/11/14 10:25:31;;;;;;;10.68;6.88;;;;;;;-142.75;100.00;76952.19;5100382;28;20070;-68
2022/11/14 10:28:02;;;;;;;11.65;6.18;;;;;;;-142.75;100.00;76991.56;5099984;28;20024;-69
2022/11/14 10:31:03;;;;;;;11.85;6.70;;;;;;;-142.75;100.00;76973.84;5081591;28;20034;-69
2022/11/14 10:33:48;;;;;;;14.43;7.55;;;;;;;-142.75;100.00;76952.19;5067520;28;20104;-69
2022/11/14 10:36:34;;;;;;;11.40;6.38;;;;;;;-142.75;100.00;76960.06;5081765;28;20030;-69
2022/11/14 10:39:30;;;;;;;9.85;6.15;;;;;;;-142.75;100.00;76999.44;5099810;28;20081;-70
2022/11/14 10:42:00;;;;;;;10.73;6.10;;;;;;;-142.75;100.00;77005.34;5091919;28;20595;-71
2022/11/14 10:44:33;;;;;;;9.55;6.25;;;;;;;-142.75;100.00;76977.78;5100586;28;20038;-70
2022/11/14 10:47:08;;;;;;;11.13;6.70;;;;;;;-142.75;100.00;76948.25;5099813;28;20023;-71
2022/11/14 10:49:35;;;;;;;9.33;6.00;;;;;;;-142.75;100.00;76962.03;5099657;28;20023;-70
2022/11/14 10:52:09;;;;;;;14.30;6.40;;;;;;;-142.75;100.00;76958.09;5099570;28;20774;-68
2022/11/14 10:54:47;;;;;;;10.88;6.00;;;;;;;-142.75;100.00;76950.22;5099929;28;20065;-72
2022/11/14 10:57:17;;;;;;;13.32;6.07;;;;;;;-142.75;100.00;76952.19;5098891;28;20026;-71
2022/11/14 10:59:43;;;;;;;9.88;5.93;;;;;;;-142.75;100.00;76964.00;5099727;28;20092;-72